Time;durP1;ratioP1;P1;durP2;ratioP2;P2;SDS_P1;SDS_P2;PMS_P1;PMS_P2;Temp;Humidity;BMP_temperature;BMP_pressure;BME280_temperature;BME280_humidity;BME280_pressure;Samples;Min_cycle;Max_cycle;Signal;HPM_P1;HPM_P2
2023/11/04 00:00:53;;;;;;;14.07;7.45;;;;;;;2.22;100.00;95228.13;5019018;28;20440;-79
2023/11/04 00:03:19;;;;;;;13.93;7.38;;;;;;;2.23;100.00;95239.34;5018073;28;20421;-79
2023/11/04 00:05:46;;;;;;;12.40;6.30;;;;;;;2.21;100.00;95236.97;5018092;28;20500;-79
2023/11/04 00:08:12;;;;;;;10.05;6.00;;;;;;;2.18;100.00;95231.50;5018265;28;20452;-79
2023/11/04 00:10:39;;;;;;;10.95;6.38;;;;;;;2.16;100.00;95226.53;5018152;28;20401;-79
2023/11/04 00:13:06;;;;;;;10.45;6.20;;;;;;;2.17;100.00;95224.69;5017671;28;20432;-79
2023/11/04 00:15:33;;;;;;;12.02;6.72;;;;;;;2.18;100.00;95226.28;5019698;28;20412;-79
2023/11/04 00:18:00;;;;;;;14.18;7.13;;;;;;;2.17;100.00;95232.53;5019664;28;20912;-79
2023/11/04 00:20:26;;;;;;;9.43;6.20;;;;;;;2.17;100.00;95238.53;5019535;28;20468;-79
2023/11/04 00:22:52;;;;;;;11.17;6.57;;;;;;;2.17;100.00;95229.91;5019484;28;20478;-80
2023/11/04 00:25:19;;;;;;;9.23;5.95;;;;;;;2.17;100.00;95232.53;5021143;28;20424;-79
2023/11/04 00:27:45;;;;;;;9.90;6.40;;;;;;;2.18;100.00;95237.47;5025102;28;20417;-78
2023/11/04 00:30:13;;;;;;;13.70;7.20;;;;;;;2.20;100.00;95232.81;5027268;28;20434;-79
2023/11/04 00:32:41;;;;;;;14.20;6.97;;;;;;;2.20;100.00;95234.63;5020576;28;20963;-79
2023/11/04 00:35:08;;;;;;;11.37;6.53;;;;;;;2.19;100.00;95230.44;5021766;28;20417;-79
2023/11/04 00:37:34;;;;;;;11.77;6.40;;;;;;;2.17;100.00;95233.31;5018571;28;20476;-79
2023/11/04 00:40:06;;;;;;;10.68;6.43;;;;;;;2.14;100.00;95228.59;5019199;28;20411;-79
2023/11/04 00:42:32;;;;;;;11.57;6.55;;;;;;;2.12;100.00;95235.09;5017629;28;20400;-79
2023/11/04 00:44:58;;;;;;;11.23;7.22;;;;;;;2.12;100.00;95229.88;5016929;28;20407;-79
2023/11/04 00:47:25;;;;;;;13.13;7.00;;;;;;;2.13;100.00;95240.06;5015820;28;20896;-79
2023/11/04 00:49:53;;;;;;;12.07;6.47;;;;;;;2.13;100.00;95242.66;5017054;28;20420;-79
2023/11/04 00:52:19;;;;;;;11.55;6.55;;;;;;;2.09;100.00;95244.22;5016089;28;20392;-79
2023/11/04 00:54:45;;;;;;;12.93;6.50;;;;;;;2.06;100.00;95244.72;5016583;28;20814;-79
2023/11/04 00:57:12;;;;;;;13.40;7.25;;;;;;;2.02;100.00;95238.44;4999444;28;20408;-79
2023/11/04 00:59:39;;;;;;;12.87;6.97;;;;;;;2.00;100.00;95245.72;5016573;28;20438;-79
2023/11/04 01:02:05;;;;;;;10.30;6.07;;;;;;;1.99;100.00;95244.13;5016460;28;20542;-79
2023/11/04 01:04:31;;;;;;;10.27;6.13;;;;;;;1.96;100.00;95244.63;5017305;28;20772;-79
2023/11/04 01:06:58;;;;;;;9.03;5.70;;;;;;;1.95;100.00;95243.81;5020716;28;20776;-79
2023/11/04 01:09:24;;;;;;;10.15;5.78;;;;;;;1.92;100.00;95244.34;5020291;28;20444;-79
2023/11/04 01:11:51;;;;;;;9.43;5.70;;;;;;;1.89;100.00;95234.41;5020735;28;20436;-79
2023/11/04 01:14:17;;;;;;;12.07;6.15;;;;;;;1.89;100.00;95246.66;5020320;28;20409;-79
2023/11/04 01:16:43;;;;;;;10.73;5.80;;;;;;;1.86;100.00;95241.94;5019778;28;20428;-79
2023/11/04 01:19:09;;;;;;;10.27;5.97;;;;;;;1.86;100.00;95237.50;5021146;28;20405;-79
2023/11/04 01:21:35;;;;;;;10.43;6.20;;;;;;;1.85;100.00;95246.38;5020609;28;20868;-79
2023/11/04 01:24:03;;;;;;;10.88;6.25;;;;;;;1.83;100.00;95239.81;5020450;28;20403;-78
2023/11/04 01:26:30;;;;;;;11.18;5.90;;;;;;;1.85;100.00;95248.19;5020841;28;20481;-79
2023/11/04 01:28:56;;;;;;;9.73;5.90;;;;;;;1.85;100.00;95241.16;5020124;28;20522;-79
2023/11/04 01:31:23;;;;;;;9.25;5.65;;;;;;;1.86;100.00;95244.56;5024906;28;20404;-79
2023/11/04 01:33:49;;;;;;;9.07;5.50;;;;;;;1.86;100.00;95249.78;5035370;28;20474;-79
2023/11/04 01:36:15;;;;;;;10.15;5.95;;;;;;;1.84;100.00;95247.41;5051302;28;20399;-79
2023/11/04 01:38:42;;;;;;;11.70;5.60;;;;;;;1.83;100.00;95245.81;5056413;28;20422;-79
2023/11/04 01:41:09;;;;;;;9.35;5.70;;;;;;;1.82;100.00;95243.47;5048600;28;20894;-78
2023/11/04 01:43:35;;;;;;;9.02;5.60;;;;;;;1.80;100.00;95245.56;5036077;28;20405;-79
2023/11/04 01:46:15;;;;;;;8.35;5.32;;;;;;;1.76;100.00;95242.63;5019543;28;20404;-79
2023/11/04 01:48:42;;;;;;;9.93;5.13;;;;;;;1.75;100.00;95248.88;5019636;28;20459;-79
2023/11/04 01:51:09;;;;;;;13.27;7.10;;;;;;;1.72;100.00;95241.56;5019212;28;20399;-79
2023/11/04 01:53:38;;;;;;;16.10;6.93;;;;;;;1.71;100.00;95236.59;5019548;28;20451;-79
2023/11/04 01:56:06;;;;;;;11.23;6.28;;;;;;;1.72;100.00;95232.97;5019640;28;20451;-79
2023/11/04 01:58:35;;;;;;;12.60;6.18;;;;;;;1.71;100.00;95234.00;5020564;28;20409;-79
2023/11/04 02:01:03;;;;;;;11.63;6.10;;;;;;;1.69;100.00;95229.03;5019708;28;20495;-79
2023/11/04 02:03:29;;;;;;;12.23;6.03;;;;;;;1.67;100.00;95225.88;5002314;28;20409;-79
2023/11/04 02:05:55;;;;;;;13.32;6.20;;;;;;;1.66;100.00;95233.94;5023033;28;20392;-79
2023/11/04 02:08:22;;;;;;;12.25;6.25;;;;;;;1.63;100.00;95231.84;5019923;28;20519;-79
2023/11/04 02:10:49;;;;;;;11.75;6.18;;;;;;;1.60;100.00;95230.50;5020179;28;20404;-79
2023/11/04 02:13:15;;;;;;;13.82;7.05;;;;;;;1.58;100.00;95229.94;5020894;28;20401;-79
2023/11/04 02:15:42;;;;;;;16.05;6.85;;;;;;;1.54;100.00;95226.28;5021439;28;20405;-79
2023/11/04 02:18:09;;;;;;;10.77;5.85;;;;;;;1.52;100.00;95215.28;5022891;28;20474;-79
2023/11/04 02:20:35;;;;;;;13.18;5.80;;;;;;;1.49;100.00;95219.19;5020944;28;20496;-79
2023/11/04 02:23:03;;;;;;;12.57;6.18;;;;;;;1.47;100.00;95220.47;5018693;28;20424;-79
2023/11/04 02:25:31;;;;;;;11.77;5.78;;;;;;;1.45;100.00;95217.31;5019849;28;20428;-79
2023/11/04 02:27:57;;;;;;;10.55;5.70;;;;;;;1.42;100.00;95213.41;5019332;28;20848;-79
2023/11/04 02:30:23;;;;;;;10.75;5.78;;;;;;;1.40;100.00;95210.25;5019415;28;20918;-79
2023/11/04 02:32:49;;;;;;;12.65;6.30;;;;;;;1.38;100.00;95216.72;5018541;28;20393;-79
2023/11/04 02:35:16;;;;;;;13.18;6.38;;;;;;;1.37;100.00;95209.94;5018334;28;20404;-79
2023/11/04 02:37:42;;;;;;;12.57;6.00;;;;;;;1.36;100.00;95216.19;5019016;28;20896;-79
2023/11/04 02:40:10;;;;;;;9.10;5.50;;;;;;;1.34;100.00;95216.44;5017696;28;20402;-78
2023/11/04 02:42:37;;;;;;;11.87;6.20;;;;;;;1.32;100.00;95209.91;5017877;28;20396;-79
2023/11/04 02:45:04;;;;;;;11.05;6.28;;;;;;;1.30;100.00;95212.75;5033218;28;20409;-79
2023/11/04 02:47:31;;;;;;;11.30;6.40;;;;;;;1.30;100.00;95217.16;5037775;28;20399;-79
2023/11/04 02:49:57;;;;;;;14.73;6.88;;;;;;;1.29;100.00;95216.38;5037924;28;20395;-79
2023/11/04 02:52:23;;;;;;;11.52;6.35;;;;;;;1.28;100.00;95225.22;5036940;28;20740;-78
2023/11/04 02:54:49;;;;;;;12.15;6.30;;;;;;;1.30;100.00;95223.19;5036765;28;20510;-79
2023/11/04 02:57:17;;;;;;;14.00;6.38;;;;;;;1.35;100.00;95220.63;5037427;28;20403;-78
2023/11/04 02:59:43;;;;;;;16.13;7.30;;;;;;;1.40;100.00;95210.25;5036727;28;20463;-79
2023/11/04 03:02:09;;;;;;;11.30;6.50;;;;;;;1.47;100.00;95208.22;5037067;28;20399;-79
2023/11/04 03:04:37;;;;;;;10.90;6.30;;;;;;;1.50;100.00;95202.50;5036790;28;20458;-79
2023/11/04 03:07:04;;;;;;;12.80;6.07;;;;;;;1.51;100.00;95203.28;5037175;28;20879;-78
2023/11/04 03:09:30;;;;;;;10.97;6.20;;;;;;;1.49;100.00;95197.56;5036701;28;20415;-79
2023/11/04 03:11:56;;;;;;;8.80;5.30;;;;;;;1.44;100.00;95189.69;5037124;28;20444;-78
2023/11/04 03:14:24;;;;;;;13.10;6.90;;;;;;;1.41;100.00;95196.19;5037011;28;20471;-79
2023/11/04 03:16:51;;;;;;;16.63;8.10;;;;;;;1.36;100.00;95190.91;5036804;28;20407;-79
2023/11/04 03:19:17;;;;;;;14.07;7.15;;;;;;;1.36;100.00;95187.50;5036169;28;20434;-78
2023/11/04 03:21:44;;;;;;;12.73;6.60;;;;;;;1.33;100.00;95181.00;5036114;28;20410;-79
2023/11/04 03:24:10;;;;;;;11.80;6.75;;;;;;;1.30;100.00;95184.09;5036925;28;20422;-79
2023/11/04 03:26:36;;;;;;;10.45;5.95;;;;;;;1.28;100.00;95185.38;5036486;28;20430;-79
2023/11/04 03:29:02;;;;;;;12.07;6.18;;;;;;;1.26;100.00;95195.25;5035906;28;20415;-79
2023/11/04 03:31:30;;;;;;;10.48;5.95;;;;;;;1.23;100.00;95191.31;5036514;28;20395;-79
2023/11/04 03:33:57;;;;;;;14.57;6.37;;;;;;;1.22;100.00;95189.75;5019905;28;20401;-79
2023/11/04 03:36:23;;;;;;;10.83;6.10;;;;;;;1.18;100.00;95183.47;5016078;28;20495;-79
2023/11/04 03:38:49;;;;;;;10.68;5.85;;;;;;;1.16;100.00;95175.88;5017301;28;20397;-79
2023/11/04 03:41:15;;;;;;;11.63;5.60;;;;;;;1.15;100.00;95183.94;5016953;28;20396;-78
2023/11/04 03:43:41;;;;;;;10.43;5.60;;;;;;;1.13;100.00;95186.78;5018214;28;20448;-79
2023/11/04 03:46:07;;;;;;;8.50;5.50;;;;;;;1.11;100.00;95178.44;5018075;28;20440;-79
2023/11/04 03:48:37;;;;;;;8.43;4.80;;;;;;;1.09;100.00;95175.28;5018290;28;20417;-79
2023/11/04 03:51:04;;;;;;;7.93;5.30;;;;;;;1.08;100.00;95181.53;5017811;28;20496;-79
2023/11/04 03:53:30;;;;;;;9.85;5.30;;;;;;;1.06;100.00;95183.59;5018990;28;20447;-79
2023/11/04 03:55:56;;;;;;;11.13;5.60;;;;;;;1.05;100.00;95184.59;5018904;28;20400;-79
2023/11/04 03:58:22;;;;;;;8.85;5.57;;;;;;;1.04;100.00;95172.63;5019109;28;20774;-79
2023/11/04 04:00:49;;;;;;;11.30;6.00;;;;;;;1.03;100.00;95176.28;5019604;28;20405;-79
2023/11/04 04:03:15;;;;;;;12.00;6.00;;;;;;;1.01;100.00;95167.13;5023918;28;20425;-79
2023/11/04 04:05:42;;;;;;;8.90;5.28;;;;;;;1.01;100.00;95177.53;5018647;28;20877;-79
2023/11/04 04:08:08;;;;;;;9.55;5.40;;;;;;;1.01;100.00;95167.13;5018643;28;20416;-79
2023/11/04 04:10:36;;;;;;;9.85;5.82;;;;;;;0.98;100.00;95163.19;5018300;28;20400;-79
2023/11/04 04:13:02;;;;;;;9.43;6.20;;;;;;;0.97;100.00;95160.84;5018699;28;20396;-79
2023/11/04 04:15:28;;;;;;;10.38;5.70;;;;;;;0.97;100.00;95158.25;5018614;28;20885;-79
2023/11/04 04:17:54;;;;;;;8.98;5.22;;;;;;;0.96;100.00;95156.66;5019871;28;20416;-79
2023/11/04 04:20:21;;;;;;;10.85;5.70;;;;;;;0.97;100.00;95153.03;5020589;28;20516;-79
2023/11/04 04:22:49;;;;;;;8.63;5.32;;;;;;;0.95;100.00;95150.66;5023867;28;20396;-79
2023/11/04 04:25:15;;;;;;;8.38;4.70;;;;;;;0.94;100.00;95149.09;5031881;28;20409;-79
2023/11/04 04:27:41;;;;;;;9.30;4.85;;;;;;;0.94;100.00;95137.88;5031687;28;20506;-79
2023/11/04 04:30:08;;;;;;;10.75;5.10;;;;;;;0.92;100.00;95138.13;5030352;28;20605;-79
2023/11/04 04:32:34;;;;;;;10.45;5.13;;;;;;;0.92;100.00;95134.72;5030189;28;20411;-79
2023/11/04 04:35:00;;;;;;;11.18;5.70;;;;;;;0.91;100.00;95130.53;5037889;28;20405;-79
2023/11/04 04:37:29;;;;;;;10.13;5.40;;;;;;;0.90;100.00;95135.00;5037126;28;20430;-79
2023/11/04 04:39:57;;;;;;;7.40;4.80;;;;;;;0.89;100.00;95130.81;5041626;28;20398;-79
2023/11/04 04:42:23;;;;;;;11.80;6.03;;;;;;;0.86;100.00;95123.47;5041777;28;20468;-79
2023/11/04 04:44:49;;;;;;;11.65;5.90;;;;;;;0.86;100.00;95125.28;5027393;28;20640;-79
2023/11/04 04:47:16;;;;;;;9.38;5.20;;;;;;;0.88;100.00;95121.41;5021553;28;20753;-79
2023/11/04 04:49:42;;;;;;;6.97;4.78;;;;;;;0.89;100.00;95122.22;5024920;28;20774;-79
2023/11/04 04:52:08;;;;;;;11.37;6.50;;;;;;;0.89;100.00;95122.22;5042386;28;20399;-79
2023/11/04 04:54:34;;;;;;;8.57;5.10;;;;;;;0.88;100.00;95111.00;5042069;28;20482;-79
2023/11/04 04:57:01;;;;;;;7.95;5.00;;;;;;;0.87;100.00;95121.66;5042498;28;20395;-79
2023/11/04 04:59:28;;;;;;;7.72;4.72;;;;;;;0.86;100.00;95112.28;5042162;28;20434;-79
2023/11/04 05:01:56;;;;;;;7.65;4.50;;;;;;;0.83;100.00;95103.13;5042180;28;20477;-79
2023/11/04 05:04:22;;;;;;;6.72;4.95;;;;;;;0.80;100.00;95098.44;5042761;28;20407;-79
2023/11/04 05:06:48;;;;;;;5.55;4.25;;;;;;;0.80;100.00;95101.03;5042964;28;20410;-79
2023/11/04 05:09:14;;;;;;;8.95;5.28;;;;;;;0.80;100.00;95095.03;5049552;28;20755;-79
2023/11/04 05:11:40;;;;;;;8.77;5.40;;;;;;;0.81;100.00;95105.22;5041276;28;20402;-79
2023/11/04 05:14:08;;;;;;;9.77;5.55;;;;;;;0.79;100.00;95107.25;5041712;28;20395;-79
2023/11/04 05:16:36;;;;;;;7.85;5.20;;;;;;;0.78;100.00;95100.47;5040845;28;20399;-79
2023/11/04 05:19:02;;;;;;;8.98;5.15;;;;;;;0.77;100.00;95096.31;5041820;28;20395;-79
2023/11/04 05:21:29;;;;;;;8.63;5.38;;;;;;;0.75;100.00;95095.78;5041943;28;20398;-79
2023/11/04 05:23:55;;;;;;;8.05;5.03;;;;;;;0.76;100.00;95092.13;5053018;28;20390;-79
2023/11/04 05:26:21;;;;;;;10.35;5.15;;;;;;;0.76;100.00;95079.88;5055711;28;20411;-79
2023/11/04 05:28:48;;;;;;;9.07;5.43;;;;;;;0.77;100.00;95080.69;5041163;28;20423;-79
2023/11/04 05:31:16;;;;;;;9.13;5.25;;;;;;;0.76;100.00;95076.50;5040413;28;20764;-79
2023/11/04 05:33:42;;;;;;;9.73;4.93;;;;;;;0.74;100.00;95075.97;5040091;28;20399;-79
2023/11/04 05:36:10;;;;;;;6.85;5.00;;;;;;;0.72;100.00;95076.22;5041078;28;20449;-79
2023/11/04 05:38:36;;;;;;;5.75;4.32;;;;;;;0.70;100.00;95070.47;5042022;28;20457;-79
2023/11/04 05:41:03;;;;;;;9.32;5.80;;;;;;;0.66;100.00;95079.03;5040823;28;20402;-79
2023/11/04 05:43:29;;;;;;;10.68;5.93;;;;;;;0.66;100.00;95074.59;5036913;28;20892;-79
2023/11/04 05:45:55;;;;;;;8.45;5.38;;;;;;;0.67;100.00;95075.38;5020469;28;20393;-79
2023/11/04 05:48:22;;;;;;;7.72;4.70;;;;;;;0.66;100.00;95063.41;5020093;28;20487;-79
2023/11/04 05:50:49;;;;;;;11.48;5.63;;;;;;;0.65;100.00;95065.22;5019165;28;20393;-79
2023/11/04 05:53:16;;;;;;;9.18;5.43;;;;;;;0.66;100.00;95053.00;5019995;28;20702;-79
2023/11/04 05:55:42;;;;;;;8.93;5.40;;;;;;;0.67;100.00;95057.97;5020225;28;20396;-79
2023/11/04 05:58:08;;;;;;;7.70;5.30;;;;;;;0.68;100.00;95048.31;5020283;28;20466;-79
2023/11/04 06:00:36;;;;;;;8.47;4.93;;;;;;;0.68;100.00;95050.91;5020012;28;20460;-79
2023/11/04 06:03:02;;;;;;;6.97;4.70;;;;;;;0.68;100.00;95043.09;5019364;28;20408;-79
2023/11/04 06:05:30;;;;;;;8.00;4.88;;;;;;;0.68;100.00;95045.69;5019209;28;20397;-78
2023/11/04 06:07:56;;;;;;;8.85;5.15;;;;;;;0.67;100.00;95052.75;5019055;28;20420;-79
2023/11/04 06:10:23;;;;;;;8.38;5.32;;;;;;;0.67;100.00;95055.34;5018700;28;20401;-78
2023/11/04 06:12:49;;;;;;;11.00;5.80;;;;;;;0.69;100.00;95049.88;5018754;28;20408;-79
2023/11/04 06:15:15;;;;;;;8.60;5.10;;;;;;;0.69;100.00;95055.09;5019254;28;20404;-79
2023/11/04 06:17:41;;;;;;;8.65;5.07;;;;;;;0.70;100.00;95041.03;5018991;28;20797;-79
2023/11/04 06:20:09;;;;;;;9.70;5.20;;;;;;;0.70;100.00;95041.81;5018795;28;20433;-80
2023/11/04 06:22:37;;;;;;;9.27;5.15;;;;;;;0.70;100.00;95035.84;5019836;28;20410;-83
2023/11/04 06:25:03;;;;;;;6.85;5.05;;;;;;;0.70;100.00;95036.63;5019122;28;20407;-83
2023/11/04 06:27:30;;;;;;;8.30;5.20;;;;;;;0.72;100.00;95031.16;5022181;28;20504;-83
2023/11/04 06:29:56;;;;;;;9.30;5.25;;;;;;;0.71;100.00;95022.56;5019893;28;20412;-84
2023/11/04 06:32:22;;;;;;;7.18;5.47;;;;;;;0.72;100.00;95020.75;5022624;28;20405;-83
2023/11/04 06:34:48;;;;;;;9.25;5.40;;;;;;;0.74;100.00;95016.09;5034198;28;20407;-84
2023/11/04 06:37:14;;;;;;;7.80;5.57;;;;;;;0.76;100.00;95011.41;5035267;28;20391;-84
2023/11/04 06:39:42;;;;;;;8.48;4.85;;;;;;;0.78;100.00;95004.94;5033888;28;20413;-83
2023/11/04 06:42:10;;;;;;;8.65;5.20;;;;;;;0.80;100.00;95007.28;5036861;28;20409;-82
2023/11/04 06:44:36;;;;;;;9.00;5.05;;;;;;;0.83;100.00;95000.81;5030929;28;20910;-84
2023/11/04 06:47:02;;;;;;;6.07;4.40;;;;;;;0.83;100.00;95001.56;5040576;28;20405;-83
2023/11/04 06:49:29;;;;;;;6.88;4.82;;;;;;;0.85;100.00;94996.13;5030991;28;20424;-84
2023/11/04 06:51:55;;;;;;;7.55;4.75;;;;;;;0.86;100.00;94982.84;5034900;28;20897;-83
2023/11/04 06:54:21;;;;;;;7.20;4.82;;;;;;;0.89;100.00;94989.41;5026103;28;20444;-84
2023/11/04 06:56:49;;;;;;;8.13;5.20;;;;;;;0.89;100.00;94984.97;5039396;28;20399;-82
2023/11/04 06:59:17;;;;;;;7.55;5.13;;;;;;;0.91;100.00;94979.50;5038304;28;20419;-82
2023/11/04 07:01:47;;;;;;;6.85;4.70;;;;;;;0.93;100.00;94982.66;5032762;28;20729;-78
2023/11/04 07:04:14;;;;;;;8.02;5.20;;;;;;;0.96;100.00;94982.94;5031337;28;20407;-78
2023/11/04 07:06:42;;;;;;;9.98;5.22;;;;;;;1.00;100.00;94981.41;5024670;28;20824;-80
2023/11/04 07:09:08;;;;;;;6.68;4.80;;;;;;;1.05;100.00;94975.47;5029747;28;20506;-80
2023/11/04 07:11:35;;;;;;;6.53;4.47;;;;;;;1.10;100.00;94978.88;5036593;28;20403;-79
2023/11/04 07:14:02;;;;;;;8.30;4.68;;;;;;;1.14;100.00;94966.91;5031103;28;20420;-79
2023/11/04 07:16:29;;;;;;;8.13;4.43;;;;;;;1.17;100.00;94958.59;5035611;28;20474;-79
2023/11/04 07:18:55;;;;;;;8.10;4.95;;;;;;;1.21;100.00;94960.69;5037296;28;20406;-80
2023/11/04 07:21:21;;;;;;;7.30;4.72;;;;;;;1.26;100.00;94960.72;5038505;28;20469;-80
2023/11/04 07:23:47;;;;;;;11.77;5.72;;;;;;;1.32;100.00;94957.91;5038915;28;20406;-83
2023/11/04 07:26:13;;;;;;;8.80;5.47;;;;;;;1.39;100.00;94960.28;5038395;28;20807;-81
2023/11/04 07:28:40;;;;;;;7.85;5.32;;;;;;;1.46;100.00;94953.00;5038797;28;20439;-83
2023/11/04 07:31:07;;;;;;;7.95;5.20;;;;;;;1.53;100.00;94948.34;5038206;28;20403;-82
2023/11/04 07:33:34;;;;;;;9.32;6.07;;;;;;;1.59;100.00;94942.13;5035546;28;20826;-83
2023/11/04 07:36:00;;;;;;;7.85;5.38;;;;;;;1.66;100.00;94932.25;5038689;28;20429;-82
2023/11/04 07:38:26;;;;;;;8.88;5.57;;;;;;;1.70;100.00;94920.28;5036459;28;20399;-83
2023/11/04 07:40:53;;;;;;;8.23;5.30;;;;;;;1.73;100.00;94911.94;5031946;28;20422;-80
2023/11/04 07:43:19;;;;;;;8.80;6.23;;;;;;;1.78;100.00;94916.41;5023484;28;20407;-83
2023/11/04 07:45:46;;;;;;;9.52;6.35;;;;;;;1.83;100.00;94914.56;5037600;28;20401;-83
2023/11/04 07:48:14;;;;;;;8.55;5.60;;;;;;;1.93;100.00;94914.63;5038799;28;20422;-81
2023/11/04 07:50:41;;;;;;;8.35;5.93;;;;;;;2.06;100.00;94909.94;5044586;28;20427;-81
2023/11/04 07:53:08;;;;;;;9.30;5.90;;;;;;;2.18;100.00;94900.81;5037341;28;20866;-84
2023/11/04 07:55:35;;;;;;;7.30;4.80;;;;;;;2.32;100.00;94895.91;5029333;28;20427;-83
2023/11/04 07:58:01;;;;;;;11.52;6.68;;;;;;;2.45;100.00;94898.00;5040763;28;20422;-78
2023/11/04 08:00:27;;;;;;;8.10;5.87;;;;;;;2.58;100.00;94894.06;5035991;28;20419;-79
2023/11/04 08:02:54;;;;;;;8.40;6.15;;;;;;;2.73;100.00;94892.22;5040834;28;20405;-78
2023/11/04 08:05:21;;;;;;;9.18;6.00;;;;;;;2.88;100.00;94882.81;5042041;28;20405;-80
2023/11/04 08:07:48;;;;;;;7.55;5.47;;;;;;;2.98;100.00;94874.97;5025874;28;20413;-77
2023/11/04 08:10:17;;;;;;;6.43;4.90;;;;;;;3.06;100.00;94890.91;5023144;28;20415;-82
2023/11/04 08:12:43;;;;;;;6.20;4.50;;;;;;;3.24;100.00;94896.59;5034728;28;20469;-79
2023/11/04 08:15:12;;;;;;;18.50;4.70;;;;;;;3.52;100.00;94898.59;5032119;28;20398;-78
2023/11/04 08:17:39;;;;;;;2.93;2.40;;;;;;;3.82;100.00;94889.84;5029776;28;20460;-80
2023/11/04 08:20:08;;;;;;;3.42;2.10;;;;;;;4.06;100.00;94880.28;5039163;28;20435;-80
2023/11/04 08:22:37;;;;;;;3.72;1.95;;;;;;;4.33;100.00;94869.38;5027802;28;20462;-83
2023/11/04 08:25:05;;;;;;;3.03;1.87;;;;;;;4.56;100.00;94876.53;5034662;28;20486;-79
2023/11/04 08:27:32;;;;;;;3.75;1.85;;;;;;;4.64;100.00;94864.69;5019545;28;20415;-80
2023/11/04 08:29:58;;;;;;;2.42;1.77;;;;;;;4.64;100.00;94849.75;5040882;28;20419;-78
2023/11/04 08:32:25;;;;;;;1.70;1.60;;;;;;;4.64;100.00;94859.44;5038663;28;20447;-80
2023/11/04 08:34:52;;;;;;;2.00;1.80;;;;;;;4.79;100.00;94850.69;5029741;28;20395;-79
2023/11/04 08:37:19;;;;;;;1.80;1.63;;;;;;;5.05;100.00;94851.97;5043768;28;20756;-79
2023/11/04 08:39:46;;;;;;;3.08;1.60;;;;;;;5.33;100.00;94845.13;5037009;28;20861;-80
2023/11/04 08:42:12;;;;;;;2.28;1.50;;;;;;;5.44;100.00;94841.31;5031441;28;20397;-78
2023/11/04 08:44:38;;;;;;;1.98;1.60;;;;;;;5.45;100.00;94835.81;5034809;28;20403;-78
2023/11/04 08:47:05;;;;;;;2.42;1.70;;;;;;;5.44;100.00;94828.22;5027466;28;21216;-77
2023/11/04 08:49:32;;;;;;;3.88;1.70;;;;;;;5.45;100.00;94822.69;5031424;28;20415;-79
2023/11/04 08:51:58;;;;;;;1.52;1.42;;;;;;;5.56;100.00;94825.19;5011793;28;20453;-79
2023/11/04 08:54:24;;;;;;;1.60;1.50;;;;;;;5.70;100.00;94818.19;5032456;28;20468;-81
2023/11/04 08:56:53;;;;;;;1.55;1.27;;;;;;;5.96;100.00;94813.38;5030162;28;20867;-80
2023/11/04 08:59:19;;;;;;;2.27;1.73;;;;;;;6.16;100.00;94813.88;5027366;28;20577;-80
2023/11/04 09:01:47;;;;;;;1.70;1.40;;;;;;;6.33;100.00;94808.09;5027311;28;20405;-80
2023/11/04 09:04:13;;;;;;;1.40;1.30;;;;;;;6.44;100.00;94809.50;5026383;28;20401;-81
2023/11/04 09:06:40;;;;;;;1.55;1.35;;;;;;;6.55;100.00;94804.84;5034453;28;20426;-82
2023/11/04 09:09:07;;;;;;;2.05;1.42;;;;;;;6.75;100.00;94798.50;5034244;28;20692;-82
2023/11/04 09:11:33;;;;;;;1.45;1.35;;;;;;;6.91;100.00;94791.88;5030294;28;20486;-82
2023/11/04 09:14:04;;;;;;;1.65;1.38;;;;;;;7.05;100.00;94790.06;5029295;28;20426;-80
2023/11/04 09:16:31;;;;;;;1.42;1.30;;;;;;;7.25;100.00;94783.59;5030082;28;20393;-80
2023/11/04 09:18:57;;;;;;;2.05;1.55;;;;;;;7.25;100.00;94784.38;5031651;28;20401;-79
2023/11/04 09:21:24;;;;;;;1.40;1.27;;;;;;;7.27;100.00;94795.41;5031816;28;20395;-80
2023/11/04 09:23:50;;;;;;;3.20;1.50;;;;;;;7.14;100.00;94788.28;5033832;28;20399;-82
2023/11/04 09:26:17;;;;;;;1.30;1.20;;;;;;;7.12;100.00;94777.28;5036922;28;20399;-80
2023/11/04 09:28:43;;;;;;;2.88;1.50;;;;;;;7.00;100.00;94779.59;5027992;28;20828;-79
2023/11/04 09:31:10;;;;;;;1.20;1.10;;;;;;;7.12;100.00;94768.63;5043941;28;20406;-81
2023/11/04 09:33:37;;;;;;;1.33;1.23;;;;;;;7.09;100.00;94767.34;5031420;28;20412;-82
2023/11/04 09:36:04;;;;;;;3.75;1.67;;;;;;;6.92;100.00;94760.03;5039541;28;20399;-80
2023/11/04 09:38:30;;;;;;;1.73;1.30;;;;;;;6.99;100.00;94762.28;5039771;28;20405;-80
2023/11/04 09:40:57;;;;;;;1.20;1.10;;;;;;;7.16;100.00;94754.56;5040634;28;20434;-80
2023/11/04 09:43:23;;;;;;;1.20;1.10;;;;;;;7.53;100.00;94760.66;5041255;28;20410;-79
2023/11/04 09:45:49;;;;;;;1.87;1.30;;;;;;;7.79;100.00;94748.53;5039182;28;20744;-79
2023/11/04 09:48:17;;;;;;;1.60;1.20;;;;;;;8.44;100.00;94738.31;5039496;28;20418;-80
2023/11/04 09:50:44;;;;;;;2.83;1.20;;;;;;;9.40;100.00;94729.66;5039723;28;20483;-81
2023/11/04 09:53:21;;;;;;;1.95;1.50;;;;;;;9.80;100.00;94719.75;5039459;28;20438;-80
2023/11/04 09:55:48;;;;;;;4.10;1.10;;;;;;;10.57;100.00;94720.78;5040498;28;20395;-80
2023/11/04 09:58:15;;;;;;;1.00;0.90;;;;;;;11.39;100.00;94715.00;5040956;28;20403;-80
2023/11/04 10:00:43;;;;;;;1.67;0.88;;;;;;;11.69;100.00;94707.00;5039950;28;20414;-80
2023/11/04 10:03:09;;;;;;;2.25;1.10;;;;;;;12.03;100.00;94698.78;5040611;28;20402;-81
2023/11/04 10:05:36;;;;;;;1.00;0.90;;;;;;;12.08;100.00;94684.56;5040178;28;20959;-80
2023/11/04 10:08:03;;;;;;;1.20;0.90;;;;;;;12.02;100.00;94687.44;5041558;28;20403;-81
2023/11/04 10:10:29;;;;;;;2.57;1.00;;;;;;;11.03;100.00;94681.09;5045133;28;20490;-80
2023/11/04 10:12:56;;;;;;;1.60;1.02;;;;;;;10.26;100.00;94676.06;5048205;28;20887;-80
2023/11/04 10:15:23;;;;;;;1.40;1.00;;;;;;;9.65;100.00;94665.53;5044487;28;20403;-80
2023/11/04 10:17:49;;;;;;;1.42;1.20;;;;;;;9.46;100.00;94661.66;5045696;28;20867;-81
2023/11/04 10:20:17;;;;;;;3.53;1.20;;;;;;;8.97;100.00;94654.91;5046687;28;20403;-79
2023/11/04 10:22:45;;;;;;;1.23;1.05;;;;;;;8.78;100.00;94647.25;5026281;28;20411;-80
2023/11/04 10:25:11;;;;;;;1.58;1.30;;;;;;;8.65;100.00;94638.34;5044412;28;20767;-80
2023/11/04 10:27:38;;;;;;;3.50;1.20;;;;;;;8.14;100.00;94644.16;5044361;28;20403;-81
2023/11/04 10:30:08;;;;;;;1.70;1.20;;;;;;;8.09;100.00;94631.13;5044673;28;20491;-80
2023/11/04 10:32:36;;;;;;;1.20;1.10;;;;;;;7.94;100.00;94628.88;5038578;28;20405;-81
2023/11/04 10:35:03;;;;;;;1.93;1.40;;;;;;;7.78;100.00;94626.63;5023927;28;20458;-80
2023/11/04 10:37:33;;;;;;;2.67;1.17;;;;;;;7.73;100.00;94616.22;5006638;28;20409;-80
2023/11/04 10:40:07;;;;;;;3.30;1.30;;;;;;;7.58;100.00;94618.44;5024158;28;20451;-80
2023/11/04 10:42:43;;;;;;;1.27;1.10;;;;;;;7.60;100.00;94601.25;5008326;28;20447;-80
2023/11/04 10:45:16;;;;;;;1.90;1.25;;;;;;;7.37;100.00;94600.47;5043453;28;20398;-80
2023/11/04 10:47:52;;;;;;;2.47;1.50;;;;;;;7.33;100.00;94593.47;5050545;28;20866;-80
2023/11/04 10:50:23;;;;;;;2.17;1.50;;;;;;;7.17;100.00;94590.41;5050532;28;20403;-81
2023/11/04 10:52:59;;;;;;;1.63;1.30;;;;;;;7.18;100.00;94580.66;5050554;28;20445;-79
2023/11/04 10:55:31;;;;;;;1.40;1.30;;;;;;;7.12;100.00;94582.63;5030843;28;20914;-80
2023/11/04 10:58:03;;;;;;;4.57;1.40;;;;;;;7.01;100.00;94570.78;5046794;28;20395;-81
2023/11/04 11:00:31;;;;;;;1.60;1.25;;;;;;;7.13;100.00;94568.41;5045580;28;20399;-81
2023/11/04 11:02:58;;;;;;;1.88;1.30;;;;;;;7.05;100.00;94561.22;5047600;28;20403;-80
2023/11/04 11:05:27;;;;;;;2.00;1.60;;;;;;;7.11;100.00;94569.78;5046920;28;20414;-81
2023/11/04 11:07:54;;;;;;;1.98;1.52;;;;;;;7.16;100.00;94575.69;5046761;28;20421;-81
2023/11/04 11:10:29;;;;;;;1.60;1.30;;;;;;;7.34;100.00;94579.25;5047446;28;20396;-81
2023/11/04 11:13:03;;;;;;;1.90;1.20;;;;;;;7.52;100.00;94573.00;5047078;28;20391;-81
2023/11/04 11:15:31;;;;;;;2.10;1.57;;;;;;;7.78;100.00;94567.91;5047724;28;20409;-81
2023/11/04 11:18:01;;;;;;;1.80;1.23;;;;;;;7.94;100.00;94550.63;5046289;28;20395;-80
2023/11/04 11:20:29;;;;;;;2.80;1.20;;;;;;;7.99;100.00;94560.25;5048641;28;20407;-81
2023/11/04 11:22:58;;;;;;;2.15;1.55;;;;;;;8.09;100.00;94575.81;5049999;28;20426;-80
2023/11/04 11:25:33;;;;;;;3.10;1.20;;;;;;;7.90;100.00;94575.22;5047002;28;20412;-80
2023/11/04 11:28:02;;;;;;;1.92;1.48;;;;;;;7.89;100.00;94574.47;5047002;28;20407;-81